sensor_id;sensor_type;location;lat;lon;timestamp;P1;durP1;ratioP1;P2;durP2;ratioP2
35606;SDS011;21729;58.392;15.656;2023-04-01T00:00:46;1.73;;;1.63;;
35606;SDS011;21729;58.392;15.656;2023-04-01T00:03:13;2.95;;;2.03;;
35606;SDS011;21729;58.392;15.656;2023-04-01T00:05:40;3.45;;;2.00;;
35606;SDS011;21729;58.392;15.656;2023-04-01T00:08:09;2.08;;;1.88;;
35606;SDS011;21729;58.392;15.656;2023-04-01T00:10:36;2.63;;;1.95;;
35606;SDS011;21729;58.392;15.656;2023-04-01T00:13:03;1.88;;;1.67;;
35606;SDS011;21729;58.392;15.656;2023-04-01T00:15:30;2.20;;;1.90;;
35606;SDS011;21729;58.392;15.656;2023-04-01T00:17:57;2.53;;;1.75;;
35606;SDS011;21729;58.392;15.656;2023-04-01T00:20:25;2.63;;;1.90;;
35606;SDS011;21729;58.392;15.656;2023-04-01T00:22:53;2.22;;;2.00;;
35606;SDS011;21729;58.392;15.656;2023-04-01T00:25:21;3.35;;;1.98;;
35606;SDS011;21729;58.392;15.656;2023-04-01T00:27:49;2.28;;;2.03;;
35606;SDS011;21729;58.392;15.656;2023-04-01T00:30:16;3.27;;;2.00;;
35606;SDS011;21729;58.392;15.656;2023-04-01T00:32:43;4.57;;;2.03;;
35606;SDS011;21729;58.392;15.656;2023-04-01T00:35:11;2.13;;;1.90;;
35606;SDS011;21729;58.392;15.656;2023-04-01T00:37:38;3.08;;;2.00;;
35606;SDS011;21729;58.392;15.656;2023-04-01T00:40:06;3.35;;;2.38;;
35606;SDS011;21729;58.392;15.656;2023-04-01T00:42:46;2.20;;;1.98;;
35606;SDS011;21729;58.392;15.656;2023-04-01T00:45:26;2.00;;;1.80;;
35606;SDS011;21729;58.392;15.656;2023-04-01T00:47:56;2.45;;;2.00;;
35606;SDS011;21729;58.392;15.656;2023-04-01T00:50:28;4.07;;;2.20;;
35606;SDS011;21729;58.392;15.656;2023-04-01T00:52:57;5.32;;;2.25;;
35606;SDS011;21729;58.392;15.656;2023-04-01T00:55:26;2.30;;;2.10;;
35606;SDS011;21729;58.392;15.656;2023-04-01T00:57:57;2.85;;;1.90;;
35606;SDS011;21729;58.392;15.656;2023-04-01T01:00:26;3.38;;;2.28;;
35606;SDS011;21729;58.392;15.656;2023-04-01T01:02:53;3.72;;;2.15;;
35606;SDS011;21729;58.392;15.656;2023-04-01T01:05:21;2.72;;;2.17;;
35606;SDS011;21729;58.392;15.656;2023-04-01T01:07:58;3.03;;;2.20;;
35606;SDS011;21729;58.392;15.656;2023-04-01T01:10:33;2.70;;;2.17;;
35606;SDS011;21729;58.392;15.656;2023-04-01T01:13:04;2.20;;;2.00;;
35606;SDS011;21729;58.392;15.656;2023-04-01T01:15:40;2.50;;;2.30;;
35606;SDS011;21729;58.392;15.656;2023-04-01T01:18:15;2.03;;;1.80;;
35606;SDS011;21729;58.392;15.656;2023-04-01T01:20:54;3.35;;;2.10;;
35606;SDS011;21729;58.392;15.656;2023-04-01T01:23:54;2.80;;;2.30;;
35606;SDS011;21729;58.392;15.656;2023-04-01T01:26:51;2.13;;;1.90;;
35606;SDS011;21729;58.392;15.656;2023-04-01T01:29:35;2.72;;;2.00;;
35606;SDS011;21729;58.392;15.656;2023-04-01T01:32:16;2.40;;;2.00;;
35606;SDS011;21729;58.392;15.656;2023-04-01T01:34:53;2.47;;;2.00;;
35606;SDS011;21729;58.392;15.656;2023-04-01T01:37:26;2.60;;;1.77;;
35606;SDS011;21729;58.392;15.656;2023-04-01T01:39:57;2.10;;;1.73;;
35606;SDS011;21729;58.392;15.656;2023-04-01T01:42:27;2.92;;;1.65;;
35606;SDS011;21729;58.392;15.656;2023-04-01T01:44:58;2.13;;;1.92;;
35606;SDS011;21729;58.392;15.656;2023-04-01T01:47:27;3.28;;;1.55;;
35606;SDS011;21729;58.392;15.656;2023-04-01T01:49:55;1.70;;;1.60;;
35606;SDS011;21729;58.392;15.656;2023-04-01T01:52:23;2.15;;;1.95;;
35606;SDS011;21729;58.392;15.656;2023-04-01T01:54:54;2.35;;;1.80;;
35606;SDS011;21729;58.392;15.656;2023-04-01T01:57:23;2.78;;;1.90;;
35606;SDS011;21729;58.392;15.656;2023-04-01T01:59:54;2.00;;;1.80;;
35606;SDS011;21729;58.392;15.656;2023-04-01T02:02:25;2.05;;;1.67;;
35606;SDS011;21729;58.392;15.656;2023-04-01T02:04:56;1.80;;;1.70;;
35606;SDS011;21729;58.392;15.656;2023-04-01T02:07:27;2.25;;;1.90;;
35606;SDS011;21729;58.392;15.656;2023-04-01T02:09:58;1.80;;;1.70;;
35606;SDS011;21729;58.392;15.656;2023-04-01T02:12:26;2.53;;;1.75;;
35606;SDS011;21729;58.392;15.656;2023-04-01T02:14:55;3.03;;;1.80;;
35606;SDS011;21729;58.392;15.656;2023-04-01T02:17:26;1.85;;;1.75;;
35606;SDS011;21729;58.392;15.656;2023-04-01T02:19:56;2.20;;;2.00;;
35606;SDS011;21729;58.392;15.656;2023-04-01T02:22:28;2.03;;;1.92;;
35606;SDS011;21729;58.392;15.656;2023-04-01T02:24:58;2.13;;;1.90;;
35606;SDS011;21729;58.392;15.656;2023-04-01T02:27:26;2.63;;;1.90;;
35606;SDS011;21729;58.392;15.656;2023-04-01T02:29:55;2.30;;;1.53;;
35606;SDS011;21729;58.392;15.656;2023-04-01T02:32:22;1.75;;;1.60;;
35606;SDS011;21729;58.392;15.656;2023-04-01T02:34:49;1.70;;;1.60;;
35606;SDS011;21729;58.392;15.656;2023-04-01T02:37:17;2.87;;;1.70;;
35606;SDS011;21729;58.392;15.656;2023-04-01T02:39:45;2.42;;;1.85;;
35606;SDS011;21729;58.392;15.656;2023-04-01T02:42:13;2.05;;;1.35;;
35606;SDS011;21729;58.392;15.656;2023-04-01T02:44:40;3.28;;;1.70;;
35606;SDS011;21729;58.392;15.656;2023-04-01T02:47:07;3.17;;;1.52;;
35606;SDS011;21729;58.392;15.656;2023-04-01T02:49:35;2.05;;;1.50;;
35606;SDS011;21729;58.392;15.656;2023-04-01T02:52:02;2.78;;;1.70;;
35606;SDS011;21729;58.392;15.656;2023-04-01T02:54:29;3.90;;;1.45;;
35606;SDS011;21729;58.392;15.656;2023-04-01T02:56:58;1.38;;;1.27;;
35606;SDS011;21729;58.392;15.656;2023-04-01T02:59:25;1.65;;;1.40;;
35606;SDS011;21729;58.392;15.656;2023-04-01T03:01:52;2.70;;;1.35;;
35606;SDS011;21729;58.392;15.656;2023-04-01T03:04:19;1.55;;;1.45;;
35606;SDS011;21729;58.392;15.656;2023-04-01T03:06:46;1.23;;;1.13;;
35606;SDS011;21729;58.392;15.656;2023-04-01T03:09:13;2.17;;;1.33;;
35606;SDS011;21729;58.392;15.656;2023-04-01T03:11:41;1.48;;;1.30;;
35606;SDS011;21729;58.392;15.656;2023-04-01T03:14:09;1.63;;;1.48;;
35606;SDS011;21729;58.392;15.656;2023-04-01T03:16:36;1.53;;;1.43;;
35606;SDS011;21729;58.392;15.656;2023-04-01T03:19:03;1.40;;;1.30;;
35606;SDS011;21729;58.392;15.656;2023-04-01T03:21:30;2.25;;;1.50;;
35606;SDS011;21729;58.392;15.656;2023-04-01T03:23:57;2.20;;;1.60;;
35606;SDS011;21729;58.392;15.656;2023-04-01T03:26:25;1.60;;;1.35;;
35606;SDS011;21729;58.392;15.656;2023-04-01T03:28:53;1.52;;;1.30;;
35606;SDS011;21729;58.392;15.656;2023-04-01T03:31:21;1.63;;;1.50;;
35606;SDS011;21729;58.392;15.656;2023-04-01T03:33:49;1.52;;;1.33;;
35606;SDS011;21729;58.392;15.656;2023-04-01T03:36:16;1.73;;;1.30;;
35606;SDS011;21729;58.392;15.656;2023-04-01T03:38:44;2.88;;;1.30;;
35606;SDS011;21729;58.392;15.656;2023-04-01T03:41:11;1.75;;;1.40;;
35606;SDS011;21729;58.392;15.656;2023-04-01T03:43:38;2.00;;;1.30;;
35606;SDS011;21729;58.392;15.656;2023-04-01T03:46:06;1.30;;;1.20;;
35606;SDS011;21729;58.392;15.656;2023-04-01T03:48:34;1.20;;;1.10;;
35606;SDS011;21729;58.392;15.656;2023-04-01T03:51:01;1.30;;;1.20;;
35606;SDS011;21729;58.392;15.656;2023-04-01T03:53:33;2.08;;;1.20;;
35606;SDS011;21729;58.392;15.656;2023-04-01T03:56:03;2.22;;;1.27;;
35606;SDS011;21729;58.392;15.656;2023-04-01T03:58:30;1.65;;;1.30;;
35606;SDS011;21729;58.392;15.656;2023-04-01T04:00:57;1.58;;;1.33;;
35606;SDS011;21729;58.392;15.656;2023-04-01T04:03:24;1.40;;;1.27;;
35606;SDS011;21729;58.392;15.656;2023-04-01T04:05:53;1.73;;;1.38;;
35606;SDS011;21729;58.392;15.656;2023-04-01T04:08:21;1.90;;;1.20;;
35606;SDS011;21729;58.392;15.656;2023-04-01T04:10:54;1.60;;;1.40;;
35606;SDS011;21729;58.392;15.656;2023-04-01T04:13:21;1.73;;;1.23;;
35606;SDS011;21729;58.392;15.656;2023-04-01T04:15:49;2.40;;;1.20;;
35606;SDS011;21729;58.392;15.656;2023-04-01T04:18:16;2.17;;;1.25;;
35606;SDS011;21729;58.392;15.656;2023-04-01T04:20:43;1.50;;;1.40;;
35606;SDS011;21729;58.392;15.656;2023-04-01T04:23:14;1.30;;;1.20;;
35606;SDS011;21729;58.392;15.656;2023-04-01T04:25:47;2.05;;;1.50;;
35606;SDS011;21729;58.392;15.656;2023-04-01T04:28:20;1.37;;;1.23;;
35606;SDS011;21729;58.392;15.656;2023-04-01T04:30:47;1.40;;;1.30;;
35606;SDS011;21729;58.392;15.656;2023-04-01T04:33:17;1.67;;;1.23;;
35606;SDS011;21729;58.392;15.656;2023-04-01T04:35:45;4.57;;;1.47;;
35606;SDS011;21729;58.392;15.656;2023-04-01T04:38:12;1.92;;;1.30;;
35606;SDS011;21729;58.392;15.656;2023-04-01T04:40:41;2.65;;;1.23;;
35606;SDS011;21729;58.392;15.656;2023-04-01T04:43:10;1.40;;;1.30;;
35606;SDS011;21729;58.392;15.656;2023-04-01T04:45:38;2.53;;;1.30;;
35606;SDS011;21729;58.392;15.656;2023-04-01T04:48:06;1.40;;;1.30;;
35606;SDS011;21729;58.392;15.656;2023-04-01T04:50:34;1.20;;;1.10;;
35606;SDS011;21729;58.392;15.656;2023-04-01T04:53:02;1.30;;;1.20;;
35606;SDS011;21729;58.392;15.656;2023-04-01T04:55:29;2.30;;;1.33;;
35606;SDS011;21729;58.392;15.656;2023-04-01T04:57:57;1.63;;;1.25;;
35606;SDS011;21729;58.392;15.656;2023-04-01T05:00:25;1.80;;;1.00;;
35606;SDS011;21729;58.392;15.656;2023-04-01T05:02:52;1.33;;;1.00;;
35606;SDS011;21729;58.392;15.656;2023-04-01T05:05:19;1.10;;;1.00;;
35606;SDS011;21729;58.392;15.656;2023-04-01T05:07:46;1.20;;;1.00;;
35606;SDS011;21729;58.392;15.656;2023-04-01T05:10:13;1.30;;;1.20;;
35606;SDS011;21729;58.392;15.656;2023-04-01T05:12:40;2.47;;;1.38;;
35606;SDS011;21729;58.392;15.656;2023-04-01T05:15:09;1.15;;;1.10;;
35606;SDS011;21729;58.392;15.656;2023-04-01T05:17:36;1.17;;;1.08;;
35606;SDS011;21729;58.392;15.656;2023-04-01T05:20:04;2.33;;;1.10;;
35606;SDS011;21729;58.392;15.656;2023-04-01T05:22:32;1.10;;;1.00;;
35606;SDS011;21729;58.392;15.656;2023-04-01T05:25:01;1.20;;;1.10;;
35606;SDS011;21729;58.392;15.656;2023-04-01T05:27:28;1.10;;;1.00;;
35606;SDS011;21729;58.392;15.656;2023-04-01T05:29:56;2.80;;;2.42;;
35606;SDS011;21729;58.392;15.656;2023-04-01T05:32:27;2.15;;;1.98;;
35606;SDS011;21729;58.392;15.656;2023-04-01T05:34:58;1.60;;;1.50;;
35606;SDS011;21729;58.392;15.656;2023-04-01T05:37:25;1.42;;;1.33;;
35606;SDS011;21729;58.392;15.656;2023-04-01T05:39:52;4.38;;;1.67;;
35606;SDS011;21729;58.392;15.656;2023-04-01T05:42:19;2.25;;;0.90;;
35606;SDS011;21729;58.392;15.656;2023-04-01T05:44:46;1.95;;;1.40;;
35606;SDS011;21729;58.392;15.656;2023-04-01T05:47:14;7.47;;;4.63;;
35606;SDS011;21729;58.392;15.656;2023-04-01T05:49:42;15.63;;;8.45;;
35606;SDS011;21729;58.392;15.656;2023-04-01T05:52:09;6.57;;;3.95;;
35606;SDS011;21729;58.392;15.656;2023-04-01T05:54:36;6.85;;;4.38;;
35606;SDS011;21729;58.392;15.656;2023-04-01T05:57:03;4.93;;;2.43;;
35606;SDS011;21729;58.392;15.656;2023-04-01T05:59:30;4.32;;;2.38;;
35606;SDS011;21729;58.392;15.656;2023-04-01T06:01:57;11.75;;;6.72;;
35606;SDS011;21729;58.392;15.656;2023-04-01T06:04:25;17.20;;;7.28;;
35606;SDS011;21729;58.392;15.656;2023-04-01T06:06:57;4.25;;;3.17;;
35606;SDS011;21729;58.392;15.656;2023-04-01T06:09:26;2.07;;;1.87;;
35606;SDS011;21729;58.392;15.656;2023-04-01T06:12:04;2.30;;;2.03;;
35606;SDS011;21729;58.392;15.656;2023-04-01T06:14:49;2.28;;;1.80;;
35606;SDS011;21729;58.392;15.656;2023-04-01T06:17:26;1.88;;;1.30;;
35606;SDS011;21729;58.392;15.656;2023-04-01T06:20:00;2.22;;;2.03;;
35606;SDS011;21729;58.392;15.656;2023-04-01T06:28:47;13.40;;;8.50;;
35606;SDS011;21729;58.392;15.656;2023-04-01T06:34:30;8.45;;;4.60;;
35606;SDS011;21729;58.392;15.656;2023-04-01T06:37:28;9.37;;;4.00;;
35606;SDS011;21729;58.392;15.656;2023-04-01T06:43:18;2.70;;;1.10;;
35606;SDS011;21729;58.392;15.656;2023-04-01T06:45:53;2.37;;;1.30;;
35606;SDS011;21729;58.392;15.656;2023-04-01T06:48:38;2.65;;;2.25;;
35606;SDS011;21729;58.392;15.656;2023-04-01T06:51:26;4.70;;;1.80;;
35606;SDS011;21729;58.392;15.656;2023-04-01T06:54:04;3.28;;;1.50;;
35606;SDS011;21729;58.392;15.656;2023-04-01T06:56:36;1.25;;;1.15;;
35606;SDS011;21729;58.392;15.656;2023-04-01T06:59:09;2.00;;;1.30;;
35606;SDS011;21729;58.392;15.656;2023-04-01T07:01:39;2.60;;;1.90;;
35606;SDS011;21729;58.392;15.656;2023-04-01T07:04:09;1.45;;;1.30;;
35606;SDS011;21729;58.392;15.656;2023-04-01T07:06:42;3.90;;;1.30;;
35606;SDS011;21729;58.392;15.656;2023-04-01T07:09:14;2.15;;;1.30;;
35606;SDS011;21729;58.392;15.656;2023-04-01T07:11:45;1.27;;;1.10;;
35606;SDS011;21729;58.392;15.656;2023-04-01T07:14:16;1.60;;;1.40;;
35606;SDS011;21729;58.392;15.656;2023-04-01T07:16:47;1.45;;;1.10;;
35606;SDS011;21729;58.392;15.656;2023-04-01T07:19:18;1.50;;;0.80;;
35606;SDS011;21729;58.392;15.656;2023-04-01T07:21:51;1.25;;;0.80;;
35606;SDS011;21729;58.392;15.656;2023-04-01T07:24:22;1.13;;;0.70;;
35606;SDS011;21729;58.392;15.656;2023-04-01T07:26:52;1.23;;;0.80;;
35606;SDS011;21729;58.392;15.656;2023-04-01T07:29:22;1.65;;;0.70;;
35606;SDS011;21729;58.392;15.656;2023-04-01T07:31:57;1.80;;;0.60;;
35606;SDS011;21729;58.392;15.656;2023-04-01T07:34:50;1.27;;;0.70;;
35606;SDS011;21729;58.392;15.656;2023-04-01T07:37:28;2.33;;;0.60;;
35606;SDS011;21729;58.392;15.656;2023-04-01T07:40:03;0.70;;;0.70;;
35606;SDS011;21729;58.392;15.656;2023-04-01T07:42:44;0.95;;;0.70;;
35606;SDS011;21729;58.392;15.656;2023-04-01T07:45:24;1.25;;;0.80;;
35606;SDS011;21729;58.392;15.656;2023-04-01T07:48:00;3.17;;;0.80;;
35606;SDS011;21729;58.392;15.656;2023-04-01T07:50:36;2.10;;;0.70;;
35606;SDS011;21729;58.392;15.656;2023-04-01T07:53:08;0.87;;;0.77;;
35606;SDS011;21729;58.392;15.656;2023-04-01T07:55:44;1.67;;;0.80;;
35606;SDS011;21729;58.392;15.656;2023-04-01T07:58:18;1.90;;;0.60;;
35606;SDS011;21729;58.392;15.656;2023-04-01T08:00:56;0.73;;;0.70;;
35606;SDS011;21729;58.392;15.656;2023-04-01T08:03:33;2.30;;;0.70;;
35606;SDS011;21729;58.392;15.656;2023-04-01T08:06:11;1.07;;;0.70;;
35606;SDS011;21729;58.392;15.656;2023-04-01T08:08:46;1.02;;;0.80;;
35606;SDS011;21729;58.392;15.656;2023-04-01T08:11:25;0.70;;;0.60;;
35606;SDS011;21729;58.392;15.656;2023-04-01T08:14:02;2.20;;;1.00;;
35606;SDS011;21729;58.392;15.656;2023-04-01T08:16:37;1.53;;;0.80;;
35606;SDS011;21729;58.392;15.656;2023-04-01T08:19:15;1.47;;;0.70;;
35606;SDS011;21729;58.392;15.656;2023-04-01T08:21:52;2.70;;;0.88;;
35606;SDS011;21729;58.392;15.656;2023-04-01T08:24:25;1.23;;;0.90;;
35606;SDS011;21729;58.392;15.656;2023-04-01T08:27:00;0.90;;;0.88;;
35606;SDS011;21729;58.392;15.656;2023-04-01T08:29:33;2.75;;;0.77;;
35606;SDS011;21729;58.392;15.656;2023-04-01T08:32:09;1.40;;;0.75;;
35606;SDS011;21729;58.392;15.656;2023-04-01T08:34:39;1.33;;;0.80;;
35606;SDS011;21729;58.392;15.656;2023-04-01T08:37:11;1.00;;;0.70;;
35606;SDS011;21729;58.392;15.656;2023-04-01T08:39:43;1.77;;;0.88;;
35606;SDS011;21729;58.392;15.656;2023-04-01T08:42:27;1.95;;;0.90;;
35606;SDS011;21729;58.392;15.656;2023-04-01T08:45:32;1.70;;;0.90;;
35606;SDS011;21729;58.392;15.656;2023-04-01T08:48:35;1.00;;;0.90;;
35606;SDS011;21729;58.392;15.656;2023-04-01T08:51:26;0.95;;;0.80;;
35606;SDS011;21729;58.392;15.656;2023-04-01T08:54:23;0.90;;;0.70;;
35606;SDS011;21729;58.392;15.656;2023-04-01T08:57:05;1.35;;;0.70;;
35606;SDS011;21729;58.392;15.656;2023-04-01T08:59:42;2.85;;;1.00;;
35606;SDS011;21729;58.392;15.656;2023-04-01T09:02:24;0.82;;;0.80;;
35606;SDS011;21729;58.392;15.656;2023-04-01T09:05:24;0.93;;;0.85;;
35606;SDS011;21729;58.392;15.656;2023-04-01T09:08:04;1.45;;;0.68;;
35606;SDS011;21729;58.392;15.656;2023-04-01T09:10:48;1.70;;;0.90;;
35606;SDS011;21729;58.392;15.656;2023-04-01T09:13:27;2.08;;;0.80;;
35606;SDS011;21729;58.392;15.656;2023-04-01T09:16:15;1.70;;;1.00;;
35606;SDS011;21729;58.392;15.656;2023-04-01T09:19:15;0.70;;;0.70;;
35606;SDS011;21729;58.392;15.656;2023-04-01T09:21:56;1.50;;;0.68;;
35606;SDS011;21729;58.392;15.656;2023-04-01T09:24:34;2.60;;;0.73;;
35606;SDS011;21729;58.392;15.656;2023-04-01T09:27:15;2.53;;;0.80;;
35606;SDS011;21729;58.392;15.656;2023-04-01T09:33:10;0.87;;;0.73;;
35606;SDS011;21729;58.392;15.656;2023-04-01T09:36:01;0.50;;;0.50;;
35606;SDS011;21729;58.392;15.656;2023-04-01T09:38:35;0.82;;;0.52;;
35606;SDS011;21729;58.392;15.656;2023-04-01T09:41:14;1.27;;;0.63;;
35606;SDS011;21729;58.392;15.656;2023-04-01T09:43:56;0.63;;;0.63;;
35606;SDS011;21729;58.392;15.656;2023-04-01T09:46:33;2.60;;;0.80;;
35606;SDS011;21729;58.392;15.656;2023-04-01T09:49:25;0.97;;;0.70;;
35606;SDS011;21729;58.392;15.656;2023-04-01T09:52:29;4.45;;;0.85;;
35606;SDS011;21729;58.392;15.656;2023-04-01T09:55:06;0.85;;;0.60;;
35606;SDS011;21729;58.392;15.656;2023-04-01T10:01:02;1.27;;;0.85;;
35606;SDS011;21729;58.392;15.656;2023-04-01T10:06:58;1.70;;;0.63;;
35606;SDS011;21729;58.392;15.656;2023-04-01T10:13:23;0.80;;;0.70;;
35606;SDS011;21729;58.392;15.656;2023-04-01T10:16:19;1.03;;;0.60;;
35606;SDS011;21729;58.392;15.656;2023-04-01T10:19:14;1.35;;;0.50;;
35606;SDS011;21729;58.392;15.656;2023-04-01T10:22:10;3.43;;;0.60;;
35606;SDS011;21729;58.392;15.656;2023-04-01T10:25:05;1.10;;;0.65;;
35606;SDS011;21729;58.392;15.656;2023-04-01T10:27:58;2.28;;;0.80;;
35606;SDS011;21729;58.392;15.656;2023-04-01T10:31:00;1.37;;;0.67;;
35606;SDS011;21729;58.392;15.656;2023-04-01T10:33:53;0.60;;;0.60;;
35606;SDS011;21729;58.392;15.656;2023-04-01T10:36:50;1.10;;;0.60;;
35606;SDS011;21729;58.392;15.656;2023-04-01T10:39:38;2.10;;;0.70;;
35606;SDS011;21729;58.392;15.656;2023-04-01T10:48:47;0.90;;;0.70;;
35606;SDS011;21729;58.392;15.656;2023-04-01T10:51:51;1.58;;;0.70;;
35606;SDS011;21729;58.392;15.656;2023-04-01T10:54:44;0.75;;;0.75;;
35606;SDS011;21729;58.392;15.656;2023-04-01T11:09:50;0.73;;;0.63;;
35606;SDS011;21729;58.392;15.656;2023-04-01T11:15:41;1.98;;;0.60;;
35606;SDS011;21729;58.392;15.656;2023-04-01T11:21:28;2.13;;;0.70;;
35606;SDS011;21729;58.392;15.656;2023-04-01T11:27:11;1.70;;;0.50;;
35606;SDS011;21729;58.392;15.656;2023-04-01T11:32:48;0.60;;;0.50;;
35606;SDS011;21729;58.392;15.656;2023-04-01T11:35:32;0.90;;;0.65;;
35606;SDS011;21729;58.392;15.656;2023-04-01T11:38:15;1.10;;;0.70;;
35606;SDS011;21729;58.392;15.656;2023-04-01T11:40:51;0.90;;;0.68;;
35606;SDS011;21729;58.392;15.656;2023-04-01T11:43:27;1.02;;;0.60;;
35606;SDS011;21729;58.392;15.656;2023-04-01T11:46:02;2.10;;;0.63;;
35606;SDS011;21729;58.392;15.656;2023-04-01T11:51:39;1.20;;;0.60;;
35606;SDS011;21729;58.392;15.656;2023-04-01T11:54:20;0.90;;;0.60;;
35606;SDS011;21729;58.392;15.656;2023-04-01T11:57:03;0.50;;;0.50;;
35606;SDS011;21729;58.392;15.656;2023-04-01T11:59:50;1.08;;;0.60;;
35606;SDS011;21729;58.392;15.656;2023-04-01T12:02:29;0.97;;;0.60;;
35606;SDS011;21729;58.392;15.656;2023-04-01T12:07:59;1.03;;;0.83;;
35606;SDS011;21729;58.392;15.656;2023-04-01T12:10:38;1.17;;;0.55;;
35606;SDS011;21729;58.392;15.656;2023-04-01T12:13:11;0.82;;;0.52;;
35606;SDS011;21729;58.392;15.656;2023-04-01T12:15:54;0.60;;;0.50;;
35606;SDS011;21729;58.392;15.656;2023-04-01T12:18:33;2.85;;;0.60;;
35606;SDS011;21729;58.392;15.656;2023-04-01T12:21:08;1.80;;;0.50;;
35606;SDS011;21729;58.392;15.656;2023-04-01T12:23:52;1.77;;;0.60;;
35606;SDS011;21729;58.392;15.656;2023-04-01T12:26:43;0.75;;;0.60;;
35606;SDS011;21729;58.392;15.656;2023-04-01T12:29:39;1.10;;;0.60;;
35606;SDS011;21729;58.392;15.656;2023-04-01T12:32:19;1.02;;;0.52;;
35606;SDS011;21729;58.392;15.656;2023-04-01T12:34:54;0.50;;;0.50;;
35606;SDS011;21729;58.392;15.656;2023-04-01T12:37:34;1.50;;;0.50;;
35606;SDS011;21729;58.392;15.656;2023-04-01T12:40:20;1.25;;;0.55;;
35606;SDS011;21729;58.392;15.656;2023-04-01T12:42:59;0.68;;;0.57;;
35606;SDS011;21729;58.392;15.656;2023-04-01T12:45:38;0.68;;;0.45;;
35606;SDS011;21729;58.392;15.656;2023-04-01T12:48:24;1.40;;;0.50;;
35606;SDS011;21729;58.392;15.656;2023-04-01T12:57:02;0.43;;;0.40;;
35606;SDS011;21729;58.392;15.656;2023-04-01T12:59:40;1.70;;;0.50;;
35606;SDS011;21729;58.392;15.656;2023-04-01T13:02:23;1.35;;;0.60;;
35606;SDS011;21729;58.392;15.656;2023-04-01T13:08:01;0.50;;;0.40;;
35606;SDS011;21729;58.392;15.656;2023-04-01T13:10:56;1.25;;;0.60;;
35606;SDS011;21729;58.392;15.656;2023-04-01T13:16:29;0.50;;;0.50;;
35606;SDS011;21729;58.392;15.656;2023-04-01T13:19:00;0.40;;;0.40;;
35606;SDS011;21729;58.392;15.656;2023-04-01T13:21:38;1.17;;;0.60;;
35606;SDS011;21729;58.392;15.656;2023-04-01T13:24:18;0.65;;;0.50;;
35606;SDS011;21729;58.392;15.656;2023-04-01T13:27:08;1.08;;;0.50;;
35606;SDS011;21729;58.392;15.656;2023-04-01T13:29:41;0.45;;;0.45;;
35606;SDS011;21729;58.392;15.656;2023-04-01T13:32:25;0.50;;;0.50;;
35606;SDS011;21729;58.392;15.656;2023-04-01T13:35:04;1.80;;;0.50;;
35606;SDS011;21729;58.392;15.656;2023-04-01T13:37:57;1.40;;;0.50;;
35606;SDS011;21729;58.392;15.656;2023-04-01T13:40:45;2.05;;;0.55;;
35606;SDS011;21729;58.392;15.656;2023-04-01T13:43:19;1.43;;;0.50;;
35606;SDS011;21729;58.392;15.656;2023-04-01T13:49:06;0.68;;;0.38;;
35606;SDS011;21729;58.392;15.656;2023-04-01T13:51:52;1.40;;;0.52;;
35606;SDS011;21729;58.392;15.656;2023-04-01T13:54:47;0.75;;;0.55;;
35606;SDS011;21729;58.392;15.656;2023-04-01T13:57:33;0.47;;;0.47;;
35606;SDS011;21729;58.392;15.656;2023-04-01T14:00:19;1.15;;;0.40;;
35606;SDS011;21729;58.392;15.656;2023-04-01T14:03:00;1.00;;;0.50;;
35606;SDS011;21729;58.392;15.656;2023-04-01T14:06:13;0.60;;;0.40;;
35606;SDS011;21729;58.392;15.656;2023-04-01T14:09:04;0.90;;;0.50;;
35606;SDS011;21729;58.392;15.656;2023-04-01T14:11:53;1.00;;;0.40;;
35606;SDS011;21729;58.392;15.656;2023-04-01T14:14:32;1.08;;;0.40;;
35606;SDS011;21729;58.392;15.656;2023-04-01T14:17:16;0.47;;;0.47;;
35606;SDS011;21729;58.392;15.656;2023-04-01T14:23:01;0.50;;;0.47;;
35606;SDS011;21729;58.392;15.656;2023-04-01T14:25:46;0.40;;;0.40;;
35606;SDS011;21729;58.392;15.656;2023-04-01T14:28:30;0.95;;;0.40;;
35606;SDS011;21729;58.392;15.656;2023-04-01T14:31:17;1.42;;;0.32;;
35606;SDS011;21729;58.392;15.656;2023-04-01T14:33:51;1.67;;;0.40;;
35606;SDS011;21729;58.392;15.656;2023-04-01T14:36:50;0.50;;;0.50;;
35606;SDS011;21729;58.392;15.656;2023-04-01T14:39:29;1.20;;;0.50;;
35606;SDS011;21729;58.392;15.656;2023-04-01T14:42:16;1.23;;;0.40;;
35606;SDS011;21729;58.392;15.656;2023-04-01T14:45:01;0.97;;;0.30;;
35606;SDS011;21729;58.392;15.656;2023-04-01T14:47:46;1.17;;;0.50;;
35606;SDS011;21729;58.392;15.656;2023-04-01T14:50:17;0.60;;;0.40;;
35606;SDS011;21729;58.392;15.656;2023-04-01T14:52:51;0.90;;;0.40;;
35606;SDS011;21729;58.392;15.656;2023-04-01T14:55:32;0.75;;;0.43;;
35606;SDS011;21729;58.392;15.656;2023-04-01T14:58:11;0.63;;;0.45;;
35606;SDS011;21729;58.392;15.656;2023-04-01T15:00:45;1.55;;;0.43;;
35606;SDS011;21729;58.392;15.656;2023-04-01T15:03:18;1.13;;;0.50;;
35606;SDS011;21729;58.392;15.656;2023-04-01T15:05:52;1.95;;;0.50;;
35606;SDS011;21729;58.392;15.656;2023-04-01T15:08:27;1.02;;;0.50;;
35606;SDS011;21729;58.392;15.656;2023-04-01T15:13:54;2.30;;;0.40;;
35606;SDS011;21729;58.392;15.656;2023-04-01T15:16:39;0.77;;;0.35;;
35606;SDS011;21729;58.392;15.656;2023-04-01T15:19:14;2.03;;;0.40;;
35606;SDS011;21729;58.392;15.656;2023-04-01T15:21:59;1.67;;;0.37;;
35606;SDS011;21729;58.392;15.656;2023-04-01T15:24:44;0.47;;;0.30;;
35606;SDS011;21729;58.392;15.656;2023-04-01T15:27:20;0.70;;;0.40;;
35606;SDS011;21729;58.392;15.656;2023-04-01T15:30:02;1.60;;;0.40;;
35606;SDS011;21729;58.392;15.656;2023-04-01T15:32:56;1.30;;;0.40;;
35606;SDS011;21729;58.392;15.656;2023-04-01T15:35:44;0.40;;;0.40;;
35606;SDS011;21729;58.392;15.656;2023-04-01T15:38:21;0.60;;;0.40;;
35606;SDS011;21729;58.392;15.656;2023-04-01T15:40:58;1.10;;;0.70;;
35606;SDS011;21729;58.392;15.656;2023-04-01T15:43:35;0.70;;;0.32;;
35606;SDS011;21729;58.392;15.656;2023-04-01T15:46:29;1.30;;;0.47;;
35606;SDS011;21729;58.392;15.656;2023-04-01T15:52:05;1.58;;;0.40;;
35606;SDS011;21729;58.392;15.656;2023-04-01T15:57:52;0.70;;;0.40;;
35606;SDS011;21729;58.392;15.656;2023-04-01T16:00:33;1.77;;;0.50;;
35606;SDS011;21729;58.392;15.656;2023-04-01T16:03:19;0.68;;;0.40;;
35606;SDS011;21729;58.392;15.656;2023-04-01T16:06:11;0.47;;;0.47;;
35606;SDS011;21729;58.392;15.656;2023-04-01T16:11:37;3.50;;;0.50;;
35606;SDS011;21729;58.392;15.656;2023-04-01T16:14:18;0.55;;;0.40;;
35606;SDS011;21729;58.392;15.656;2023-04-01T16:17:02;0.32;;;0.30;;
35606;SDS011;21729;58.392;15.656;2023-04-01T16:19:49;0.60;;;0.40;;
35606;SDS011;21729;58.392;15.656;2023-04-01T16:22:22;0.60;;;0.30;;
35606;SDS011;21729;58.392;15.656;2023-04-01T16:24:53;1.23;;;0.40;;
35606;SDS011;21729;58.392;15.656;2023-04-01T16:27:41;1.23;;;0.50;;
35606;SDS011;21729;58.392;15.656;2023-04-01T16:30:23;1.17;;;0.40;;
35606;SDS011;21729;58.392;15.656;2023-04-01T16:33:00;1.17;;;0.45;;
35606;SDS011;21729;58.392;15.656;2023-04-01T16:35:33;0.85;;;0.40;;
35606;SDS011;21729;58.392;15.656;2023-04-01T16:38:09;3.13;;;0.80;;
35606;SDS011;21729;58.392;15.656;2023-04-01T16:40:43;1.35;;;0.40;;
35606;SDS011;21729;58.392;15.656;2023-04-01T16:43:19;1.00;;;0.55;;
35606;SDS011;21729;58.392;15.656;2023-04-01T16:46:12;0.63;;;0.50;;
35606;SDS011;21729;58.392;15.656;2023-04-01T16:48:50;2.92;;;0.43;;
35606;SDS011;21729;58.392;15.656;2023-04-01T16:51:25;0.40;;;0.32;;
35606;SDS011;21729;58.392;15.656;2023-04-01T16:54:02;2.83;;;0.50;;
35606;SDS011;21729;58.392;15.656;2023-04-01T16:56:38;0.97;;;0.40;;
35606;SDS011;21729;58.392;15.656;2023-04-01T16:59:14;1.20;;;0.60;;